createdAt,value
2019-02-27T00:00:17.174Z,16.00
2019-02-27T00:01:17.626Z,15.40
2019-02-27T00:02:17.077Z,15.80
2019-02-27T00:03:17.012Z,16.00
2019-02-27T00:04:16.983Z,15.30
2019-02-27T00:05:16.909Z,17.70
2019-02-27T00:06:16.855Z,17.20
2019-02-27T00:07:20.874Z,14.90
2019-02-27T00:08:16.730Z,16.20
2019-02-27T00:09:16.695Z,16.20
2019-02-27T00:10:16.628Z,15.30
2019-02-27T00:11:16.568Z,15.70
2019-02-27T00:12:16.871Z,15.80
2019-02-27T00:13:16.448Z,16.50
2019-02-27T00:14:16.430Z,14.20
2019-02-27T00:15:16.342Z,15.90
2019-02-27T00:16:16.281Z,14.90
2019-02-27T00:17:18.220Z,15.70
2019-02-27T00:18:16.178Z,15.40
2019-02-27T00:19:16.150Z,16.90
2019-02-27T00:20:16.062Z,15.10
2019-02-27T00:21:16.014Z,14.80
2019-02-27T00:22:17.719Z,15.90
2019-02-27T00:23:15.900Z,15.50
2019-02-27T00:24:15.833Z,15.40
2019-02-27T00:25:15.829Z,15.30
2019-02-27T00:26:15.727Z,16.30
2019-02-27T00:27:15.675Z,14.90
2019-02-27T00:28:15.618Z,16.10
2019-02-27T00:29:15.562Z,16.60
2019-02-27T00:30:15.532Z,16.80
2019-02-27T00:31:15.450Z,15.50
2019-02-27T00:32:18.248Z,16.60
2019-02-27T00:33:15.346Z,16.10
2019-02-27T00:34:15.285Z,16.00
2019-02-27T00:35:15.247Z,16.60
2019-02-27T00:36:15.172Z,17.10
2019-02-27T00:37:18.713Z,15.60
2019-02-27T00:38:15.072Z,16.40
2019-02-27T00:39:15.001Z,16.80
2019-02-27T00:40:14.976Z,15.90
2019-02-27T00:41:14.903Z,15.80
2019-02-27T00:42:19.488Z,16.20
2019-02-27T00:43:14.777Z,17.00
2019-02-27T00:44:14.739Z,16.70
2019-02-27T00:45:14.693Z,17.70
2019-02-27T00:46:14.615Z,15.90
2019-02-27T00:47:17.051Z,15.80
2019-02-27T00:48:14.499Z,16.60
2019-02-27T00:49:14.434Z,16.20
2019-02-27T00:50:14.417Z,16.40
2019-02-27T00:51:14.333Z,15.50
2019-02-27T00:52:18.056Z,15.80
2019-02-27T00:53:14.218Z,15.60
2019-02-27T00:54:14.162Z,16.00
2019-02-27T00:55:14.133Z,16.20
2019-02-27T00:56:14.051Z,16.50
2019-02-27T00:57:15.204Z,15.60
2019-02-27T00:58:13.943Z,14.70
2019-02-27T00:59:13.883Z,17.60
2019-02-27T01:00:13.848Z,16.40
2019-02-27T01:01:13.774Z,15.20
2019-02-27T01:02:13.711Z,15.60
2019-02-27T01:03:13.660Z,16.30
2019-02-27T01:04:13.606Z,16.60
2019-02-27T01:05:13.589Z,16.00
2019-02-27T01:06:14.770Z,16.10
2019-02-27T01:07:13.431Z,17.80
2019-02-27T01:08:13.396Z,17.40
2019-02-27T01:09:13.320Z,17.10
2019-02-27T01:10:13.302Z,15.50
2019-02-27T01:11:13.217Z,16.70
2019-02-27T01:12:13.159Z,16.10
2019-02-27T01:13:13.096Z,15.70
2019-02-27T01:14:13.046Z,16.10
2019-02-27T01:15:13.009Z,16.70
2019-02-27T01:16:17.033Z,17.80
2019-02-27T01:17:12.873Z,16.00
2019-02-27T01:18:12.818Z,15.10
2019-02-27T01:19:12.765Z,16.70
2019-02-27T01:20:12.733Z,16.40
2019-02-27T01:21:12.655Z,16.50
2019-02-27T01:22:12.598Z,18.10
2019-02-27T01:23:12.547Z,16.30
2019-02-27T01:24:14.933Z,15.20
2019-02-27T01:25:12.459Z,16.80
2019-02-27T01:26:12.373Z,15.10
2019-02-27T01:27:12.315Z,15.60
2019-02-27T01:28:12.258Z,15.20
2019-02-27T01:29:12.206Z,15.30
2019-02-27T01:30:12.198Z,15.50
2019-02-27T01:31:12.097Z,15.80
2019-02-27T01:32:12.036Z,16.30
2019-02-27T01:33:11.975Z,17.40
2019-02-27T01:34:11.958Z,16.70
2019-02-27T01:35:11.895Z,17.30
2019-02-27T01:36:11.815Z,17.20
2019-02-27T01:37:11.757Z,18.80
2019-02-27T01:38:11.713Z,19.10
2019-02-27T01:39:12.036Z,18.10
2019-02-27T01:40:11.611Z,18.90
2019-02-27T01:41:11.596Z,18.10
2019-02-27T01:42:11.468Z,18.10
2019-02-27T01:43:11.434Z,17.80
2019-02-27T01:44:13.700Z,18.00
2019-02-27T01:45:11.339Z,17.90
2019-02-27T01:46:11.244Z,17.90
2019-02-27T01:47:11.206Z,17.80
2019-02-27T01:48:11.135Z,16.90
2019-02-27T01:49:11.082Z,18.10
2019-02-27T01:50:11.029Z,18.80
2019-02-27T01:51:11.010Z,18.60
2019-02-27T01:52:10.913Z,19.20
2019-02-27T01:53:10.861Z,19.20
2019-02-27T01:54:12.264Z,18.10
2019-02-27T01:55:10.740Z,20.20
2019-02-27T01:56:10.714Z,19.40
2019-02-27T01:57:10.641Z,18.30
2019-02-27T01:58:10.574Z,19.30
2019-02-27T01:59:10.514Z,16.80
2019-02-27T02:00:10.468Z,17.70
2019-02-27T02:01:10.427Z,17.60
2019-02-27T02:02:10.353Z,19.70
2019-02-27T02:03:11.128Z,18.60
2019-02-27T02:04:10.237Z,19.20
2019-02-27T02:05:10.181Z,17.50
2019-02-27T02:06:10.155Z,18.00
2019-02-27T02:07:10.078Z,19.10
2019-02-27T02:08:13.466Z,17.40
2019-02-27T02:09:09.956Z,17.60
2019-02-27T02:10:09.895Z,20.50
2019-02-27T02:11:09.867Z,17.30
2019-02-27T02:12:09.787Z,18.40
2019-02-27T02:13:14.831Z,18.10
2019-02-27T02:14:09.673Z,18.10
2019-02-27T02:15:09.617Z,18.30
2019-02-27T02:16:09.594Z,18.00
2019-02-27T02:17:09.506Z,17.30
2019-02-27T02:18:11.880Z,17.60
2019-02-27T02:19:09.395Z,18.10
2019-02-27T02:20:09.342Z,18.90
2019-02-27T02:21:09.321Z,17.70
2019-02-27T02:22:09.227Z,18.00
2019-02-27T02:23:09.169Z,17.30
2019-02-27T02:24:09.116Z,18.40
2019-02-27T02:25:09.054Z,18.20
2019-02-27T02:26:09.028Z,18.80
2019-02-27T02:27:08.961Z,17.20
2019-02-27T02:28:08.890Z,17.50
2019-02-27T02:29:08.833Z,17.40
2019-02-27T02:30:08.774Z,17.50
2019-02-27T02:31:08.753Z,18.20
2019-02-27T02:32:08.663Z,17.40
2019-02-27T02:33:08.609Z,16.80
2019-02-27T02:34:08.553Z,19.50
2019-02-27T02:35:14.789Z,17.40
2019-02-27T02:36:08.468Z,17.10
2019-02-27T02:37:08.388Z,18.60
2019-02-27T02:38:12.065Z,17.40
2019-02-27T02:39:08.272Z,19.30
2019-02-27T02:40:08.235Z,18.50
2019-02-27T02:41:09.333Z,17.50
2019-02-27T02:42:08.105Z,18.00
2019-02-27T02:43:08.059Z,19.40
2019-02-27T02:44:07.988Z,17.90
2019-02-27T02:45:07.937Z,16.90
2019-02-27T02:46:08.796Z,19.10
2019-02-27T02:47:07.846Z,18.00
2019-02-27T02:48:07.761Z,18.80
2019-02-27T02:49:08.494Z,19.80
2019-02-27T02:50:07.658Z,18.10
2019-02-27T02:51:07.595Z,19.50
2019-02-27T02:52:07.571Z,19.40
2019-02-27T02:53:07.482Z,18.00
2019-02-27T02:54:07.434Z,17.90
2019-02-27T02:55:11.955Z,17.60
2019-02-27T02:56:07.327Z,17.60
2019-02-27T02:57:07.305Z,17.60
2019-02-27T02:58:07.997Z,18.10
2019-02-27T02:59:07.144Z,18.10
2019-02-27T03:00:07.100Z,18.40
2019-02-27T03:01:07.112Z,18.80
2019-02-27T03:02:07.010Z,18.30
2019-02-27T03:03:06.932Z,18.50
2019-02-27T03:04:12.501Z,18.90
2019-02-27T03:05:06.810Z,18.90
2019-02-27T03:06:06.752Z,18.40
2019-02-27T03:07:07.213Z,18.10
2019-02-27T03:08:06.669Z,19.00
2019-02-27T03:09:06.602Z,18.00
2019-02-27T03:10:07.398Z,18.10
2019-02-27T03:11:06.478Z,18.60
2019-02-27T03:12:06.441Z,18.60
2019-02-27T03:13:07.431Z,19.70
2019-02-27T03:14:06.301Z,17.90
2019-02-27T03:15:06.247Z,19.80
2019-02-27T03:16:06.202Z,20.10
2019-02-27T03:17:06.153Z,19.00
2019-02-27T03:18:06.076Z,19.40
2019-02-27T03:19:06.559Z,20.80
2019-02-27T03:20:05.957Z,19.40
2019-02-27T03:21:05.925Z,18.60
2019-02-27T03:22:05.898Z,19.30
2019-02-27T03:23:05.787Z,18.20
2019-02-27T03:24:05.741Z,18.40
2019-02-27T03:25:05.779Z,18.60
2019-02-27T03:26:05.645Z,18.90
2019-02-27T03:27:05.605Z,17.80
2019-02-27T03:28:05.919Z,17.60
2019-02-27T03:29:05.457Z,18.20
2019-02-27T03:30:05.404Z,19.00
2019-02-27T03:31:05.368Z,17.50
2019-02-27T03:32:05.302Z,17.00
2019-02-27T03:33:05.269Z,18.30
2019-02-27T03:34:08.164Z,17.30
2019-02-27T03:35:05.111Z,17.10
2019-02-27T03:36:05.061Z,19.00
2019-02-27T03:37:05.002Z,17.60
2019-02-27T03:38:04.987Z,17.70
2019-02-27T03:39:04.894Z,18.20
2019-02-27T03:40:10.900Z,18.20
2019-02-27T03:41:04.778Z,18.80
2019-02-27T03:42:04.715Z,18.50
2019-02-27T03:43:10.061Z,19.00
2019-02-27T03:44:04.612Z,19.20
2019-02-27T03:45:04.545Z,17.40
2019-02-27T03:46:06.198Z,17.40
2019-02-27T03:47:04.438Z,17.30
2019-02-27T03:48:04.411Z,18.10
2019-02-27T03:49:04.631Z,19.70
2019-02-27T03:50:04.267Z,18.00
2019-02-27T03:51:04.214Z,16.90
2019-02-27T03:52:04.153Z,15.60
2019-02-27T03:53:04.216Z,17.60
2019-02-27T03:54:04.042Z,16.30
2019-02-27T03:55:03.988Z,17.70
2019-02-27T03:56:08.711Z,17.20
2019-02-27T03:57:03.865Z,17.20
2019-02-27T03:58:03.843Z,17.80
2019-02-27T03:59:06.090Z,16.90
2019-02-27T04:00:03.704Z,17.70
2019-02-27T04:01:03.665Z,17.80
2019-02-27T04:02:06.199Z,16.70
2019-02-27T04:03:03.560Z,18.20
2019-02-27T04:04:03.485Z,17.10
2019-02-27T04:05:07.116Z,18.50
2019-02-27T04:06:03.367Z,19.10
2019-02-27T04:07:03.307Z,19.40
2019-02-27T04:08:07.285Z,19.30
2019-02-27T04:09:03.189Z,18.60
2019-02-27T04:10:03.146Z,18.60
2019-02-27T04:11:05.873Z,18.40
2019-02-27T04:12:03.024Z,17.50
2019-02-27T04:13:02.990Z,19.70
2019-02-27T04:14:05.431Z,18.50
2019-02-27T04:15:02.853Z,18.20
2019-02-27T04:16:02.798Z,17.40
2019-02-27T04:17:07.070Z,18.60
2019-02-27T04:18:02.709Z,18.60
2019-02-27T04:19:04.499Z,19.40
2019-02-27T04:20:02.575Z,18.50
2019-02-27T04:21:02.516Z,18.40
2019-02-27T04:22:02.458Z,18.10
2019-02-27T04:23:02.437Z,17.20
2019-02-27T04:24:02.356Z,17.90
2019-02-27T04:25:02.288Z,18.20
2019-02-27T04:26:05.323Z,17.60
2019-02-27T04:27:02.187Z,18.10
2019-02-27T04:28:02.145Z,19.60
2019-02-27T04:29:04.844Z,18.50
2019-02-27T04:30:02.007Z,19.10
2019-02-27T04:31:01.950Z,18.30
2019-02-27T04:32:01.901Z,17.90
2019-02-27T04:33:01.901Z,17.60
2019-02-27T04:34:01.783Z,19.30
2019-02-27T04:35:05.906Z,18.40
2019-02-27T04:36:01.660Z,19.10
2019-02-27T04:37:01.609Z,18.70
2019-02-27T04:38:01.549Z,18.40
2019-02-27T04:39:02.427Z,18.90
2019-02-27T04:40:01.428Z,18.80
2019-02-27T04:41:01.374Z,17.90
2019-02-27T04:42:01.327Z,17.30
2019-02-27T04:43:01.264Z,18.10
2019-02-27T04:44:05.363Z,17.70
2019-02-27T04:45:01.208Z,17.20
2019-02-27T04:46:01.120Z,17.60
2019-02-27T04:47:01.044Z,17.40
2019-02-27T04:48:00.989Z,17.00
2019-02-27T04:49:04.043Z,18.70
2019-02-27T04:50:00.862Z,19.60
2019-02-27T04:51:00.810Z,18.30
2019-02-27T04:52:00.754Z,18.20
2019-02-27T04:53:00.693Z,16.20
2019-02-27T04:54:00.669Z,19.50
2019-02-27T04:55:00.588Z,17.40
2019-02-27T04:56:00.523Z,16.60
2019-02-27T04:57:00.468Z,17.30
2019-02-27T04:58:00.467Z,16.80
2019-02-27T04:59:00.392Z,17.00
2019-02-27T05:00:00.301Z,16.50
2019-02-27T05:01:00.245Z,18.10
2019-02-27T05:02:00.194Z,18.50
2019-02-27T05:03:00.142Z,17.10
2019-02-27T05:04:01.414Z,17.60
2019-02-27T05:05:00.043Z,16.50
2019-02-27T05:05:59.965Z,17.40
2019-02-27T05:06:59.965Z,17.30
2019-02-27T05:07:59.851Z,16.90
2019-02-27T05:09:00.276Z,17.00
2019-02-27T05:09:59.739Z,17.60
2019-02-27T05:10:59.687Z,17.20
2019-02-27T05:11:59.633Z,18.80
2019-02-27T05:12:59.562Z,18.80
2019-02-27T05:13:59.531Z,18.50
2019-02-27T05:15:00.968Z,18.00
2019-02-27T05:15:59.397Z,19.80
2019-02-27T05:16:59.721Z,18.20
2019-02-27T05:17:59.302Z,18.20
2019-02-27T05:19:03.589Z,18.00
2019-02-27T05:19:59.173Z,17.60
2019-02-27T05:20:59.107Z,17.90
2019-02-27T05:22:01.128Z,17.00
2019-02-27T05:23:00.341Z,18.00
2019-02-27T05:23:58.984Z,16.50
2019-02-27T05:24:58.881Z,18.80
2019-02-27T05:25:58.822Z,17.50
2019-02-27T05:27:00.822Z,18.10
2019-02-27T05:28:01.065Z,17.10
2019-02-27T05:28:58.681Z,17.50
2019-02-27T05:30:00.027Z,17.90
2019-02-27T05:30:58.540Z,17.20
2019-02-27T05:31:58.482Z,18.10
2019-02-27T05:33:01.825Z,17.80
2019-02-27T05:33:58.421Z,18.30
2019-02-27T05:34:58.311Z,17.10
2019-02-27T05:35:58.252Z,17.30
2019-02-27T05:36:58.195Z,15.20
2019-02-27T05:37:58.141Z,18.30
2019-02-27T05:38:58.092Z,17.80
2019-02-27T05:39:58.055Z,18.30
2019-02-27T05:41:00.020Z,18.10
2019-02-27T05:41:57.910Z,18.20
2019-02-27T05:42:57.869Z,18.50
2019-02-27T05:43:57.797Z,16.80
2019-02-27T05:44:57.768Z,17.20
2019-02-27T05:45:57.677Z,18.00
2019-02-27T05:46:57.631Z,18.00
2019-02-27T05:47:57.587Z,18.00
2019-02-27T05:48:57.512Z,18.90
2019-02-27T05:49:57.954Z,16.70
2019-02-27T05:50:57.398Z,17.10
2019-02-27T05:51:57.337Z,17.40
2019-02-27T05:52:57.288Z,19.60
2019-02-27T05:53:58.452Z,16.70
2019-02-27T05:54:57.223Z,16.70
2019-02-27T05:55:58.460Z,17.70
2019-02-27T05:56:57.053Z,16.10
2019-02-27T05:57:57.000Z,16.80
2019-02-27T05:58:56.942Z,18.40
2019-02-27T05:59:56.909Z,19.30
2019-02-27T06:00:56.831Z,17.20
2019-02-27T06:01:56.767Z,18.10
2019-02-27T06:02:56.893Z,18.30
2019-02-27T06:03:56.656Z,20.90
2019-02-27T06:04:59.164Z,19.70
2019-02-27T06:05:56.542Z,17.90
2019-02-27T06:06:56.491Z,18.40
2019-02-27T06:07:56.432Z,16.70
2019-02-27T06:08:56.384Z,18.10
2019-02-27T06:09:56.366Z,19.10
2019-02-27T06:10:56.313Z,18.80
2019-02-27T06:11:56.200Z,17.10
2019-02-27T06:12:56.146Z,17.70
2019-02-27T06:13:56.088Z,17.60
2019-02-27T06:14:56.050Z,16.30
2019-02-27T06:15:55.972Z,17.10
2019-02-27T06:16:55.913Z,18.70
2019-02-27T06:17:55.860Z,17.30
2019-02-27T06:18:56.243Z,17.80
2019-02-27T06:19:55.765Z,19.40
2019-02-27T06:20:55.683Z,18.20
2019-02-27T06:21:56.378Z,19.10
2019-02-27T06:22:55.571Z,18.50
2019-02-27T06:23:55.516Z,18.80
2019-02-27T06:24:55.481Z,17.80
2019-02-27T06:25:59.019Z,17.10
2019-02-27T06:26:55.363Z,18.70
2019-02-27T06:27:55.292Z,16.90
2019-02-27T06:28:55.227Z,17.60
2019-02-27T06:29:57.092Z,18.70
2019-02-27T06:30:55.113Z,18.00
2019-02-27T06:31:55.097Z,17.50
2019-02-27T06:32:55.001Z,18.80
2019-02-27T06:33:54.943Z,19.70
2019-02-27T06:34:59.044Z,16.50
2019-02-27T06:35:54.834Z,16.10
2019-02-27T06:36:54.773Z,17.10
2019-02-27T06:37:54.717Z,18.30
2019-02-27T06:38:54.660Z,17.90
2019-02-27T06:39:54.623Z,17.80
2019-02-27T06:40:54.565Z,17.90
2019-02-27T06:41:54.536Z,17.00
2019-02-27T06:42:54.802Z,17.80
2019-02-27T06:43:54.369Z,17.80
2019-02-27T06:44:54.345Z,18.60
2019-02-27T06:45:54.391Z,18.10
2019-02-27T06:46:54.723Z,17.20
2019-02-27T06:47:54.147Z,18.20
2019-02-27T06:48:54.093Z,21.50
2019-02-27T06:49:54.028Z,17.50
2019-02-27T06:50:54.010Z,18.20
2019-02-27T06:51:53.922Z,18.90
2019-02-27T06:52:53.859Z,20.40
2019-02-27T06:53:53.799Z,20.50
2019-02-27T06:54:53.750Z,19.60
2019-02-27T06:55:53.751Z,21.30
2019-02-27T06:56:53.631Z,19.20
2019-02-27T06:57:53.568Z,19.20
2019-02-27T06:58:53.517Z,21.30
2019-02-27T06:59:53.460Z,20.60
2019-02-27T07:00:53.427Z,20.20
2019-02-27T07:01:53.339Z,20.90
2019-02-27T07:02:55.449Z,20.60
2019-02-27T07:03:53.247Z,21.80
2019-02-27T07:04:53.180Z,22.60
2019-02-27T07:05:53.138Z,21.80
2019-02-27T07:06:55.361Z,21.90
2019-02-27T07:07:53.007Z,20.80
2019-02-27T07:08:52.948Z,21.30
2019-02-27T07:09:52.900Z,20.50
2019-02-27T07:10:52.856Z,20.00
2019-02-27T07:11:52.780Z,19.90
2019-02-27T07:12:54.692Z,22.30
2019-02-27T07:13:52.667Z,21.80
2019-02-27T07:14:53.931Z,22.00
2019-02-27T07:15:52.581Z,22.70
2019-02-27T07:16:52.484Z,19.10
2019-02-27T07:17:52.442Z,21.10
2019-02-27T07:18:52.406Z,19.40
2019-02-27T07:19:52.338Z,19.00
2019-02-27T07:20:52.288Z,17.70
2019-02-27T07:21:52.207Z,20.50
2019-02-27T07:22:52.149Z,18.00
2019-02-27T07:23:57.752Z,17.20
2019-02-27T07:24:52.033Z,19.10
2019-02-27T07:25:52.014Z,17.80
2019-02-27T07:26:51.924Z,17.30
2019-02-27T07:27:51.875Z,18.20
2019-02-27T07:28:51.815Z,18.10
2019-02-27T07:29:51.759Z,17.60
2019-02-27T07:30:51.729Z,19.30
2019-02-27T07:31:52.092Z,19.60
2019-02-27T07:32:51.589Z,18.00
2019-02-27T07:33:51.528Z,19.70
2019-02-27T07:34:51.509Z,17.90
2019-02-27T07:35:51.454Z,19.40
2019-02-27T07:36:51.369Z,17.50
2019-02-27T07:37:51.313Z,23.00
2019-02-27T07:38:51.252Z,18.40
2019-02-27T07:39:51.199Z,18.50
2019-02-27T07:40:51.163Z,18.30
2019-02-27T07:41:51.087Z,20.10
2019-02-27T07:42:51.028Z,19.20
2019-02-27T07:43:50.971Z,17.90
2019-02-27T07:44:50.914Z,17.60
2019-02-27T07:45:50.899Z,17.70
2019-02-27T07:46:50.817Z,17.70
2019-02-27T07:47:50.747Z,18.30
2019-02-27T07:48:50.692Z,16.90
2019-02-27T07:49:50.643Z,20.70
2019-02-27T07:50:50.613Z,20.00
2019-02-27T07:51:50.531Z,16.80
2019-02-27T07:52:52.055Z,16.90
2019-02-27T07:53:51.461Z,18.50
2019-02-27T07:54:50.361Z,16.50
2019-02-27T07:55:50.569Z,17.30
2019-02-27T07:56:50.258Z,17.70
2019-02-27T07:57:50.212Z,17.70
2019-02-27T07:58:50.143Z,18.60
2019-02-27T07:59:50.086Z,17.00
2019-02-27T08:00:50.553Z,17.40
2019-02-27T08:01:49.980Z,17.60
2019-02-27T08:02:49.924Z,18.70
2019-02-27T08:03:49.861Z,18.20
2019-02-27T08:04:51.685Z,17.50
2019-02-27T08:05:49.775Z,18.10
2019-02-27T08:06:49.763Z,17.70
2019-02-27T08:07:49.985Z,16.70
2019-02-27T08:08:49.608Z,17.30
2019-02-27T08:09:49.647Z,17.20
2019-02-27T08:10:49.539Z,16.40
2019-02-27T08:11:49.547Z,18.00
2019-02-27T08:12:49.422Z,19.40
2019-02-27T08:13:49.342Z,18.40
2019-02-27T08:14:49.284Z,18.20
2019-02-27T08:15:49.228Z,16.70
2019-02-27T08:16:49.237Z,14.60
2019-02-27T08:17:49.226Z,13.90
2019-02-27T08:18:49.085Z,12.40
2019-02-27T08:19:49.019Z,14.10
2019-02-27T08:20:48.983Z,11.90
2019-02-27T08:21:48.960Z,12.80
2019-02-27T08:22:49.642Z,12.90
2019-02-27T08:23:48.802Z,11.60
2019-02-27T08:24:48.750Z,11.30
2019-02-27T08:25:48.724Z,12.50
2019-02-27T08:26:49.171Z,12.10
2019-02-27T08:27:48.612Z,13.60
2019-02-27T08:28:48.539Z,11.30
2019-02-27T08:29:48.479Z,10.60
2019-02-27T08:30:48.426Z,9.90
2019-02-27T08:31:48.402Z,9.60
2019-02-27T08:32:48.327Z,10.90
2019-02-27T08:33:48.323Z,11.40
2019-02-27T08:34:48.276Z,10.80
2019-02-27T08:35:48.166Z,9.40
2019-02-27T08:36:48.150Z,10.40
2019-02-27T08:37:48.082Z,11.00
2019-02-27T08:38:48.005Z,10.50
2019-02-27T08:39:47.959Z,10.80
2019-02-27T08:40:47.901Z,10.70
2019-02-27T08:41:47.904Z,10.00
2019-02-27T08:42:47.821Z,10.90
2019-02-27T08:43:47.745Z,9.40
2019-02-27T08:44:47.700Z,10.80
2019-02-27T08:45:47.645Z,11.30
2019-02-27T08:46:47.618Z,10.80
2019-02-27T08:47:47.536Z,11.30
2019-02-27T08:48:49.916Z,10.00
2019-02-27T08:49:47.425Z,10.10
2019-02-27T08:50:47.506Z,9.50
2019-02-27T08:51:47.347Z,10.40
2019-02-27T08:52:50.107Z,10.70
2019-02-27T08:53:47.228Z,9.70
2019-02-27T08:54:47.172Z,10.40
2019-02-27T08:55:47.121Z,9.60
2019-02-27T08:56:47.876Z,9.40
2019-02-27T08:57:47.013Z,9.60
2019-02-27T08:58:46.963Z,9.90
2019-02-27T08:59:46.912Z,11.00
2019-02-27T09:00:47.327Z,10.20
2019-02-27T09:01:46.831Z,9.10
2019-02-27T09:02:46.758Z,9.10
2019-02-27T09:03:46.711Z,9.30
2019-02-27T09:04:46.663Z,10.50
2019-02-27T09:05:46.613Z,10.30
2019-02-27T09:06:46.575Z,9.20
2019-02-27T09:07:46.492Z,12.20
2019-02-27T09:08:46.437Z,8.90
2019-02-27T09:09:51.362Z,9.40
2019-02-27T09:10:46.340Z,9.80
2019-02-27T09:11:46.342Z,9.10
2019-02-27T09:12:48.825Z,9.30
2019-02-27T09:13:46.185Z,10.60
2019-02-27T09:14:46.144Z,9.50
2019-02-27T09:15:46.088Z,9.50
2019-02-27T09:16:46.060Z,9.40
2019-02-27T09:17:45.986Z,9.60
2019-02-27T09:18:45.935Z,10.50
2019-02-27T09:19:46.471Z,8.10
2019-02-27T09:20:45.835Z,10.00
2019-02-27T09:21:45.800Z,9.80
2019-02-27T09:22:45.732Z,8.70
2019-02-27T09:23:45.687Z,9.30
2019-02-27T09:24:45.624Z,8.80
2019-02-27T09:25:45.580Z,8.50
2019-02-27T09:26:45.632Z,9.20
2019-02-27T09:27:45.478Z,8.80
2019-02-27T09:28:45.418Z,8.30
2019-02-27T09:29:45.370Z,9.10
2019-02-27T09:30:45.325Z,8.70
2019-02-27T09:31:50.824Z,8.70
2019-02-27T09:32:46.056Z,8.60
2019-02-27T09:33:45.172Z,9.40
2019-02-27T09:34:45.118Z,8.50
2019-02-27T09:35:45.058Z,7.90
2019-02-27T09:36:45.045Z,9.30
2019-02-27T09:37:44.963Z,9.20
2019-02-27T09:38:45.269Z,9.10
2019-02-27T09:39:44.863Z,9.30
2019-02-27T09:40:44.810Z,9.20
2019-02-27T09:41:46.979Z,9.00
2019-02-27T09:42:44.757Z,8.50
2019-02-27T09:43:44.708Z,7.20
2019-02-27T09:44:44.612Z,8.80
2019-02-27T09:45:46.483Z,9.00
2019-02-27T09:46:44.503Z,9.20
2019-02-27T09:47:44.487Z,10.00
2019-02-27T09:48:44.402Z,9.10
2019-02-27T09:49:44.358Z,9.10
2019-02-27T09:50:47.564Z,8.70
2019-02-27T09:51:44.259Z,8.20
2019-02-27T09:52:44.227Z,10.00
2019-02-27T09:53:44.155Z,8.90
2019-02-27T09:54:46.777Z,9.10
2019-02-27T09:55:44.056Z,10.00
2019-02-27T09:56:44.043Z,9.60
2019-02-27T09:57:43.988Z,8.10
2019-02-27T09:58:45.562Z,8.70
2019-02-27T09:59:43.847Z,9.60
2019-02-27T10:00:43.804Z,7.20
2019-02-27T10:01:43.752Z,8.80
2019-02-27T10:02:46.394Z,7.50
2019-02-27T10:03:43.657Z,8.20
2019-02-27T10:04:43.611Z,8.40
2019-02-27T10:05:43.547Z,8.80
2019-02-27T10:06:43.526Z,8.70
2019-02-27T10:07:43.482Z,8.50
2019-02-27T10:08:43.403Z,10.80
2019-02-27T10:09:43.346Z,10.30
2019-02-27T10:10:45.811Z,10.40
2019-02-27T10:11:43.249Z,8.00
2019-02-27T10:12:43.233Z,8.00
2019-02-27T10:13:43.145Z,7.90
2019-02-27T10:14:43.104Z,7.70
2019-02-27T10:15:43.051Z,6.60
2019-02-27T10:16:43.023Z,6.50
2019-02-27T10:17:43.694Z,7.30
2019-02-27T10:18:42.905Z,6.70
2019-02-27T10:19:42.847Z,6.10
2019-02-27T10:20:42.811Z,5.10
2019-02-27T10:21:44.567Z,5.90
2019-02-27T10:22:42.731Z,5.00
2019-02-27T10:23:42.647Z,5.80
2019-02-27T10:24:42.630Z,5.40
2019-02-27T10:25:43.585Z,5.80
2019-02-27T10:26:42.501Z,5.30
2019-02-27T10:27:43.985Z,10.10
2019-02-27T10:28:44.007Z,5.40
2019-02-27T10:29:42.377Z,5.40
2019-02-27T10:30:42.310Z,5.50
2019-02-27T10:31:42.259Z,6.00
2019-02-27T10:32:42.264Z,5.20
2019-02-27T10:33:42.833Z,4.80
2019-02-27T10:34:42.111Z,4.80
2019-02-27T10:35:42.071Z,5.40
2019-02-27T10:36:42.037Z,4.40
2019-02-27T10:37:42.011Z,4.50
2019-02-27T10:38:41.927Z,4.40
2019-02-27T10:39:41.862Z,4.30
2019-02-27T10:40:41.821Z,5.40
2019-02-27T10:41:41.755Z,5.40
2019-02-27T10:42:41.726Z,5.90
2019-02-27T10:43:41.685Z,5.00
2019-02-27T10:44:41.612Z,4.70
2019-02-27T10:45:42.232Z,4.90
2019-02-27T10:46:41.505Z,4.90
2019-02-27T10:47:41.463Z,5.20
2019-02-27T10:48:41.432Z,4.90
2019-02-27T10:49:41.373Z,4.30
2019-02-27T10:50:41.312Z,4.90
2019-02-27T10:51:41.569Z,5.20
2019-02-27T10:52:41.209Z,4.90
2019-02-27T10:53:41.190Z,6.20
2019-02-27T10:54:41.112Z,5.20
2019-02-27T10:55:41.065Z,4.60
2019-02-27T10:56:41.010Z,5.50
2019-02-27T10:57:40.962Z,5.40
2019-02-27T10:58:40.937Z,6.10
2019-02-27T10:59:40.867Z,6.00
2019-02-27T11:00:40.828Z,5.40
2019-02-27T11:01:40.768Z,6.80
2019-02-27T11:02:40.718Z,5.30
2019-02-27T11:03:40.692Z,5.10
2019-02-27T11:04:40.615Z,5.70
2019-02-27T11:05:40.575Z,6.00
2019-02-27T11:06:40.515Z,5.40
2019-02-27T11:07:40.484Z,6.00
2019-02-27T11:08:40.445Z,6.60
2019-02-27T11:09:41.294Z,6.10
2019-02-27T11:10:40.324Z,5.50
2019-02-27T11:11:40.270Z,5.90
2019-02-27T11:12:40.218Z,5.50
2019-02-27T11:13:40.203Z,5.50
2019-02-27T11:14:40.118Z,5.60
2019-02-27T11:15:41.443Z,6.20
2019-02-27T11:16:40.023Z,6.00
2019-02-27T11:17:39.996Z,5.90
2019-02-27T11:18:39.957Z,6.00
2019-02-27T11:19:39.880Z,5.40
2019-02-27T11:20:39.820Z,6.10
2019-02-27T11:21:39.773Z,5.20
2019-02-27T11:22:39.722Z,4.80
2019-02-27T11:23:41.150Z,6.00
2019-02-27T11:24:39.643Z,5.90
2019-02-27T11:25:39.581Z,5.10
2019-02-27T11:26:39.529Z,5.10
2019-02-27T11:27:39.749Z,5.60
2019-02-27T11:28:39.434Z,5.50
2019-02-27T11:29:39.404Z,5.60
2019-02-27T11:30:39.335Z,5.10
2019-02-27T11:31:39.284Z,4.90
2019-02-27T11:32:39.256Z,7.00
2019-02-27T11:33:39.186Z,5.00
2019-02-27T11:34:39.166Z,4.60
2019-02-27T11:35:39.086Z,6.30
2019-02-27T11:36:39.671Z,5.00
2019-02-27T11:37:38.979Z,5.20
2019-02-27T11:38:38.937Z,4.90
2019-02-27T11:39:38.917Z,4.40
2019-02-27T11:40:41.789Z,4.80
2019-02-27T11:41:38.786Z,4.80
2019-02-27T11:42:38.734Z,4.90
2019-02-27T11:43:40.830Z,5.20
2019-02-27T11:44:38.722Z,4.50
2019-02-27T11:45:38.593Z,5.40
2019-02-27T11:46:38.956Z,6.50
2019-02-27T11:47:38.490Z,4.90
2019-02-27T11:48:38.443Z,4.70
2019-02-27T11:49:38.770Z,4.90
2019-02-27T11:50:38.355Z,4.50
2019-02-27T11:51:38.308Z,5.50
2019-02-27T11:52:38.243Z,3.90
2019-02-27T11:53:38.194Z,4.60
2019-02-27T11:54:42.939Z,5.40
2019-02-27T11:55:38.097Z,6.10
2019-02-27T11:56:38.048Z,5.10
2019-02-27T11:57:37.993Z,4.90
2019-02-27T11:58:38.510Z,4.50
2019-02-27T11:59:37.936Z,4.40
2019-02-27T12:00:37.864Z,5.10
2019-02-27T12:01:37.808Z,4.90
2019-02-27T12:02:38.011Z,3.70
2019-02-27T12:03:37.730Z,4.00
2019-02-27T12:04:37.714Z,3.70
2019-02-27T12:05:37.612Z,4.40
2019-02-27T12:06:41.309Z,6.80
2019-02-27T12:07:37.517Z,4.90
2019-02-27T12:08:37.464Z,3.40
2019-02-27T12:09:37.476Z,3.30
2019-02-27T12:10:37.379Z,4.50
2019-02-27T12:11:37.335Z,4.20
2019-02-27T12:12:37.277Z,4.20
2019-02-27T12:13:37.216Z,3.90
2019-02-27T12:14:37.228Z,4.10
2019-02-27T12:15:37.176Z,4.90
2019-02-27T12:16:37.063Z,4.50
2019-02-27T12:17:37.018Z,3.70
2019-02-27T12:18:36.974Z,5.00
2019-02-27T12:19:36.929Z,4.50
2019-02-27T12:20:36.892Z,3.70
2019-02-27T12:21:36.824Z,3.70
2019-02-27T12:22:36.770Z,3.90
2019-02-27T12:23:36.730Z,4.60
2019-02-27T12:24:36.672Z,4.60
2019-02-27T12:25:36.654Z,5.50
2019-02-27T12:26:37.624Z,4.30
2019-02-27T12:27:48.293Z,4.80
2019-02-27T12:28:36.494Z,5.10
2019-02-27T12:29:36.453Z,5.20
2019-02-27T12:30:37.423Z,4.20
2019-02-27T12:31:36.332Z,4.40
2019-02-27T12:32:36.276Z,5.10
2019-02-27T12:33:36.223Z,4.90
2019-02-27T12:34:37.074Z,4.30
2019-02-27T12:35:36.157Z,5.10
2019-02-27T12:36:36.085Z,4.20
2019-02-27T12:37:36.036Z,5.50
2019-02-27T12:38:35.988Z,5.80
2019-02-27T12:39:35.937Z,4.90
2019-02-27T12:40:35.921Z,4.30
2019-02-27T12:41:35.838Z,4.30
2019-02-27T12:42:37.505Z,4.10
2019-02-27T12:43:35.741Z,4.80
2019-02-27T12:44:35.699Z,4.00
2019-02-27T12:45:35.706Z,4.60
2019-02-27T12:46:36.986Z,4.90
2019-02-27T12:47:37.638Z,4.70
2019-02-27T12:48:35.503Z,4.70
2019-02-27T12:49:35.443Z,3.90
2019-02-27T12:50:35.434Z,4.50
2019-02-27T12:51:38.298Z,3.90
2019-02-27T12:52:35.296Z,4.90
2019-02-27T12:53:35.266Z,4.80
2019-02-27T12:54:35.206Z,3.90
2019-02-27T12:55:36.282Z,4.00
2019-02-27T12:56:35.136Z,3.70
2019-02-27T12:57:35.066Z,5.20
2019-02-27T12:58:35.014Z,5.40
2019-02-27T12:59:34.961Z,5.30